createdAt,value
2018-05-12T00:01:01.522Z,9.10
2018-05-12T00:03:30.781Z,8.13
2018-05-12T00:06:00.031Z,7.03
2018-05-12T00:08:29.229Z,7.77
2018-05-12T00:10:58.546Z,7.50
2018-05-12T00:13:28.499Z,7.03
2018-05-12T00:15:57.713Z,7.30
2018-05-12T00:18:26.951Z,6.00
2018-05-12T00:20:56.506Z,6.67
2018-05-12T00:23:25.701Z,7.33
2018-05-12T00:25:54.979Z,6.03
2018-05-12T00:28:24.246Z,7.20
2018-05-12T00:30:53.477Z,7.80
2018-05-12T00:33:23.509Z,7.03
2018-05-12T00:35:52.847Z,6.87
2018-05-12T00:38:22.046Z,6.60
2018-05-12T00:40:51.328Z,6.37
2018-05-12T00:43:21.361Z,6.80
2018-05-12T00:45:50.650Z,7.27
2018-05-12T00:48:19.838Z,6.93
2018-05-12T00:50:49.083Z,7.00
2018-05-12T00:53:19.136Z,6.37
2018-05-12T00:55:49.125Z,7.43
2018-05-12T00:58:19.106Z,6.50
2018-05-12T01:00:48.320Z,6.33
2018-05-12T01:03:18.368Z,6.30
2018-05-12T01:05:48.360Z,7.23
2018-05-12T01:08:17.597Z,6.50
2018-05-12T01:10:46.878Z,6.33
2018-05-12T01:13:16.086Z,6.83
2018-05-12T01:15:45.333Z,6.50
2018-05-12T01:18:14.577Z,6.73
2018-05-12T01:20:44.545Z,5.90
2018-05-12T01:23:13.766Z,6.30
2018-05-12T01:25:43.747Z,6.40
2018-05-12T01:28:12.977Z,6.20
2018-05-12T01:30:42.171Z,6.77
2018-05-12T01:33:11.425Z,7.23
2018-05-12T01:35:40.813Z,7.33
2018-05-12T01:38:10.058Z,6.63
2018-05-12T01:40:39.300Z,7.40
2018-05-12T01:43:08.541Z,7.70
2018-05-12T01:45:37.747Z,6.43
2018-05-12T01:48:07.171Z,8.00
2018-05-12T01:50:36.586Z,7.30
2018-05-12T01:53:05.784Z,6.63
2018-05-12T01:55:35.748Z,6.43
2018-05-12T01:58:04.958Z,7.27
2018-05-12T02:00:34.450Z,6.77
2018-05-12T02:03:03.615Z,6.77
2018-05-12T02:05:32.845Z,7.27
2018-05-12T02:08:02.061Z,6.57
2018-05-12T02:10:31.280Z,7.00
2018-05-12T02:13:00.484Z,6.40
2018-05-12T02:15:29.726Z,7.63
2018-05-12T02:17:58.945Z,6.97
2018-05-12T02:20:28.188Z,7.17
2018-05-12T02:22:57.405Z,7.27
2018-05-12T02:25:26.708Z,8.23
2018-05-12T02:27:55.902Z,7.47
2018-05-12T02:30:25.207Z,7.03
2018-05-12T02:32:54.502Z,8.03
2018-05-12T02:35:23.698Z,7.67
2018-05-12T02:37:52.934Z,7.17
2018-05-12T02:40:22.364Z,7.10
2018-05-12T02:42:52.378Z,6.83
2018-05-12T02:45:21.681Z,7.20
2018-05-12T02:47:51.151Z,8.00
2018-05-12T02:50:20.370Z,7.43
2018-05-12T02:52:49.737Z,7.37
2018-05-12T02:55:19.129Z,7.33
2018-05-12T02:57:48.439Z,7.93
2018-05-12T03:00:17.639Z,7.50
2018-05-12T03:02:46.891Z,7.97
2018-05-12T03:05:16.123Z,8.07
2018-05-12T03:07:45.353Z,8.40
2018-05-12T03:10:14.610Z,7.00
2018-05-12T03:12:43.861Z,7.73
2018-05-12T03:15:13.079Z,7.83
2018-05-12T03:17:42.311Z,7.67
2018-05-12T03:20:11.705Z,7.10
2018-05-12T03:22:41.253Z,7.73
2018-05-12T03:25:10.505Z,8.67
2018-05-12T03:27:39.727Z,9.20
2018-05-12T03:30:08.990Z,8.57
2018-05-12T03:32:38.213Z,7.50
2018-05-12T03:35:07.438Z,8.70
2018-05-12T03:37:36.789Z,8.13
2018-05-12T03:40:05.998Z,7.90
2018-05-12T03:42:35.203Z,8.50
2018-05-12T03:45:04.968Z,8.37
2018-05-12T03:47:34.948Z,7.87
2018-05-12T03:50:04.151Z,8.50
2018-05-12T03:52:33.353Z,8.40
2018-05-12T03:55:02.573Z,8.80
2018-05-12T03:57:32.652Z,9.53
2018-05-12T04:00:01.829Z,8.83
2018-05-12T04:02:31.778Z,9.50
2018-05-12T04:05:18.577Z,8.53
2018-05-12T04:08:05.415Z,9.50
2018-05-12T04:24:06.863Z,9.83
2018-05-12T04:26:36.069Z,9.97
2018-05-12T04:29:05.482Z,9.20
2018-05-12T04:31:34.666Z,9.03
2018-05-12T04:34:04.272Z,9.07
2018-05-12T04:36:33.533Z,9.17
2018-05-12T04:39:02.914Z,9.77
2018-05-12T04:41:33.072Z,9.50
2018-05-12T04:44:02.311Z,9.30
2018-05-12T04:46:32.265Z,9.47
2018-05-12T04:49:01.478Z,9.07
2018-05-12T04:51:30.701Z,8.57
2018-05-12T04:54:00.693Z,9.33
2018-05-12T04:56:30.677Z,10.90
2018-05-12T04:58:59.932Z,9.73
2018-05-12T05:01:29.925Z,10.97
2018-05-12T05:03:59.213Z,10.17
2018-05-12T05:06:28.537Z,10.17
2018-05-12T05:08:57.843Z,10.43
2018-05-12T05:11:27.821Z,9.40
2018-05-12T05:13:57.056Z,10.47
2018-05-12T05:16:27.056Z,10.90
2018-05-12T05:18:56.303Z,10.10
2018-05-12T05:21:25.557Z,10.03
2018-05-12T05:23:54.978Z,10.20
2018-05-12T05:26:24.309Z,9.97
2018-05-12T05:28:53.506Z,10.63
2018-05-12T05:31:22.739Z,10.40
2018-05-12T05:33:52.018Z,10.00
2018-05-12T05:36:21.465Z,13.03
2018-05-12T05:38:51.487Z,11.30
2018-05-12T05:41:21.437Z,9.70
2018-05-12T05:43:50.802Z,9.97
2018-05-12T05:46:20.852Z,11.27
2018-05-12T05:48:50.123Z,11.00
2018-05-12T05:51:20.201Z,10.37
2018-05-12T05:53:49.452Z,10.23
2018-05-12T05:56:18.695Z,9.43
2018-05-12T05:58:47.902Z,9.10
2018-05-12T06:01:17.261Z,10.07
2018-05-12T06:03:46.584Z,9.80
2018-05-12T06:06:15.842Z,8.67
2018-05-12T06:08:45.058Z,9.70
2018-05-12T06:11:14.470Z,9.40
2018-05-12T06:13:43.690Z,8.80
2018-05-12T06:16:12.931Z,9.20
2018-05-12T06:18:42.162Z,9.30
2018-05-12T06:21:11.417Z,9.30
2018-05-12T06:23:40.612Z,9.90
2018-05-12T06:26:10.724Z,7.70
2018-05-12T06:28:40.712Z,9.10
2018-05-12T06:31:09.942Z,9.33
2018-05-12T06:33:40.809Z,9.97
2018-05-12T06:36:10.326Z,8.30
2018-05-12T06:38:40.286Z,8.20
2018-05-12T06:41:09.514Z,9.00
2018-05-12T06:43:39.503Z,8.37
2018-05-12T06:46:08.866Z,7.97
2018-05-12T06:48:38.112Z,8.43
2018-05-12T06:51:08.119Z,9.40
2018-05-12T06:53:37.462Z,7.53
2018-05-12T06:56:06.692Z,9.10
2018-05-12T06:58:35.908Z,8.37
2018-05-12T07:01:05.197Z,9.00
2018-05-12T07:03:34.463Z,8.10
2018-05-12T07:06:03.672Z,9.03
2018-05-12T07:08:32.935Z,8.03
2018-05-12T07:11:04.083Z,9.00
2018-05-12T07:13:35.207Z,8.23
2018-05-12T07:16:05.227Z,8.30
2018-05-12T07:18:34.474Z,8.37
2018-05-12T07:23:39.062Z,8.03
2018-05-12T07:26:09.221Z,8.60
2018-05-12T07:28:39.188Z,7.70
2018-05-12T07:31:09.218Z,8.30
2018-05-12T07:33:39.263Z,9.40
2018-05-12T07:36:09.221Z,9.00
2018-05-12T07:38:38.445Z,8.50
2018-05-12T07:41:08.432Z,9.57
2018-05-12T07:43:37.637Z,8.20
2018-05-12T07:46:06.901Z,7.37
2018-05-12T07:48:36.133Z,8.20
2018-05-12T07:51:05.403Z,7.93
2018-05-12T07:53:34.684Z,7.90
2018-05-12T07:56:04.665Z,7.93
2018-05-12T07:58:34.631Z,7.53
2018-05-12T08:01:03.858Z,7.40
2018-05-12T08:03:33.905Z,7.57
2018-05-12T08:06:03.055Z,8.37
2018-05-12T08:08:32.273Z,8.00
2018-05-12T08:11:01.482Z,8.10
2018-05-12T08:13:31.477Z,7.97
2018-05-12T08:16:00.831Z,7.13
2018-05-12T08:18:30.136Z,6.60
2018-05-12T08:21:00.113Z,6.77
2018-05-12T08:23:30.096Z,5.50
2018-05-12T08:25:59.336Z,5.87
2018-05-12T08:28:29.334Z,5.20
2018-05-12T08:30:58.569Z,5.60
2018-05-12T08:33:28.561Z,4.37
2018-05-12T08:35:58.602Z,4.07
2018-05-12T08:38:27.820Z,3.93
2018-05-12T08:40:57.040Z,3.90
2018-05-12T08:43:26.263Z,3.90
2018-05-12T08:45:56.266Z,4.10
2018-05-12T08:48:25.590Z,4.23
2018-05-12T08:50:54.830Z,4.57
2018-05-12T08:53:24.054Z,4.00
2018-05-12T08:55:53.264Z,4.10
2018-05-12T08:58:22.539Z,3.27
2018-05-12T09:00:53.799Z,3.53
2018-05-12T09:03:23.259Z,3.50
2018-05-12T09:05:52.468Z,3.13
2018-05-12T09:08:21.716Z,3.20
2018-05-12T09:10:50.895Z,3.60
2018-05-12T09:13:20.144Z,3.87
2018-05-12T09:15:49.353Z,3.70
2018-05-12T09:18:18.812Z,3.50
2018-05-12T09:20:48.826Z,3.50
2018-05-12T09:23:18.278Z,3.60
2018-05-12T09:25:47.504Z,3.20
2018-05-12T09:28:16.762Z,3.30
2018-05-12T09:30:47.878Z,4.20
2018-05-12T09:33:17.892Z,4.03
2018-05-12T09:35:48.046Z,4.43
2018-05-12T09:38:17.272Z,3.90
2018-05-12T09:40:46.557Z,4.37
2018-05-12T09:43:15.807Z,4.60
2018-05-12T09:45:45.091Z,4.53
2018-05-12T09:48:14.418Z,5.87
2018-05-12T09:50:43.701Z,4.80
2018-05-12T09:53:13.726Z,6.37
2018-05-12T09:55:42.970Z,5.77
2018-05-12T09:58:12.805Z,5.30
2018-05-12T10:00:42.069Z,5.87
2018-05-12T10:03:11.341Z,6.10
2018-05-12T10:05:41.314Z,6.77
2018-05-12T10:08:10.513Z,6.27
2018-05-12T10:10:39.853Z,6.13
2018-05-12T10:13:09.206Z,6.37
2018-05-12T10:15:38.500Z,5.63
2018-05-12T10:18:08.463Z,5.70
2018-05-12T10:20:38.465Z,4.80
2018-05-12T10:23:07.691Z,37.10
2018-05-12T10:25:37.030Z,7.03
2018-05-12T10:28:06.256Z,5.40
2018-05-12T10:30:35.726Z,6.33
2018-05-12T10:33:04.946Z,6.93
2018-05-12T10:35:34.555Z,6.33
2018-05-12T10:38:03.883Z,6.80
2018-05-12T10:40:33.226Z,6.90
2018-05-12T10:43:02.510Z,7.30
2018-05-12T10:45:31.808Z,7.33
2018-05-12T10:48:01.195Z,7.10
2018-05-12T10:50:32.812Z,7.67
2018-05-12T10:53:02.073Z,7.23
2018-05-12T10:55:31.317Z,6.10
2018-05-12T10:58:00.682Z,6.73
2018-05-12T11:00:30.012Z,7.53
2018-05-12T11:03:00.763Z,6.40
2018-05-12T11:05:30.762Z,6.50
2018-05-12T11:08:01.490Z,6.17
2018-05-12T11:10:30.884Z,6.10
2018-05-12T11:13:01.327Z,6.40
2018-05-12T11:15:30.558Z,5.50
2018-05-12T11:18:00.588Z,5.70
2018-05-12T11:20:29.808Z,6.30
2018-05-12T11:22:59.082Z,6.30
2018-05-12T11:25:28.404Z,5.60
2018-05-12T11:27:57.629Z,5.73
2018-05-12T11:30:26.828Z,5.97
2018-05-12T11:32:56.096Z,5.93
2018-05-12T11:35:25.452Z,5.73
2018-05-12T11:37:54.699Z,6.60
2018-05-12T11:40:24.303Z,5.83
2018-05-12T11:42:54.383Z,5.83
2018-05-12T11:45:24.422Z,6.30
2018-05-12T11:47:53.672Z,7.10
2018-05-12T11:50:23.727Z,5.53
2018-05-12T11:52:52.932Z,5.90
2018-05-12T11:55:22.196Z,6.50
2018-05-12T11:57:51.375Z,7.20
2018-05-12T12:00:20.577Z,6.17
2018-05-12T12:02:49.819Z,5.90
2018-05-12T12:05:19.027Z,6.10
2018-05-12T12:07:48.274Z,5.70
2018-05-12T12:10:17.473Z,4.80
2018-05-12T12:12:46.693Z,5.70
2018-05-12T12:15:16.690Z,6.20
2018-05-12T12:17:47.405Z,5.70
2018-05-12T12:20:16.789Z,5.73
2018-05-12T12:22:46.005Z,6.30
2018-05-12T12:25:16.169Z,5.47
2018-05-12T12:27:45.547Z,5.83
2018-05-12T12:30:15.537Z,5.10
2018-05-12T12:32:44.775Z,6.20
2018-05-12T12:35:14.216Z,6.00
2018-05-12T12:37:43.582Z,6.07
2018-05-12T12:40:12.857Z,6.80
2018-05-12T12:42:42.937Z,5.73
2018-05-12T12:45:12.181Z,6.03
2018-05-12T12:47:41.374Z,6.13
2018-05-12T12:50:11.461Z,6.73
2018-05-12T12:52:40.669Z,6.23
2018-05-12T12:55:09.888Z,5.67
2018-05-12T12:57:39.972Z,5.90
2018-05-12T13:00:09.181Z,7.63
2018-05-12T13:02:38.405Z,6.73
2018-05-12T13:05:09.306Z,7.90
2018-05-12T13:07:38.926Z,6.50
2018-05-12T13:10:08.158Z,6.67
2018-05-12T13:12:38.143Z,8.03
2018-05-12T13:15:07.475Z,6.37
2018-05-12T13:17:37.488Z,7.30
2018-05-12T13:20:07.531Z,6.83
2018-05-12T13:22:36.812Z,7.57
2018-05-12T13:25:06.782Z,6.73
2018-05-12T13:27:36.027Z,6.83
2018-05-12T13:30:06.008Z,7.50
2018-05-12T13:32:35.410Z,6.80
2018-05-12T13:35:04.677Z,7.27
2018-05-12T13:37:33.910Z,8.07
2018-05-12T13:40:03.163Z,8.67
2018-05-12T13:42:32.351Z,6.07
2018-05-12T13:45:01.582Z,6.87
2018-05-12T13:47:30.784Z,6.60
2018-05-12T13:50:00.044Z,7.90
2018-05-12T13:52:29.349Z,8.10
2018-05-12T13:54:58.694Z,7.30
2018-05-12T13:57:27.971Z,7.43
2018-05-12T13:59:57.403Z,6.70
2018-05-12T14:02:26.610Z,6.60
2018-05-12T14:04:56.695Z,7.33
2018-05-12T14:07:25.984Z,6.90
2018-05-12T14:09:55.922Z,6.40
2018-05-12T14:12:26.656Z,7.43
2018-05-12T14:14:56.264Z,7.60
2018-05-12T14:17:25.508Z,7.63
2018-05-12T14:19:54.784Z,7.30
2018-05-12T14:22:24.214Z,6.70
2018-05-12T14:24:53.482Z,6.73
2018-05-12T14:27:23.562Z,7.40
2018-05-12T14:29:52.773Z,6.90
2018-05-12T14:32:22.044Z,6.60
2018-05-12T14:34:51.278Z,6.27
2018-05-12T14:37:21.413Z,7.20
2018-05-12T14:39:51.435Z,6.57
2018-05-12T14:42:21.450Z,7.10
2018-05-12T14:44:50.654Z,7.37
2018-05-12T14:47:20.629Z,6.77
2018-05-12T14:49:49.829Z,5.80
2018-05-12T14:52:19.106Z,8.00
2018-05-12T14:54:48.392Z,7.30
2018-05-12T14:57:18.214Z,7.60
2018-05-12T14:59:47.479Z,6.77
2018-05-12T15:02:16.734Z,6.47
2018-05-12T15:04:45.938Z,7.00
2018-05-12T15:07:15.205Z,6.87
2018-05-12T15:09:44.431Z,7.37
2018-05-12T15:12:13.637Z,7.50
2018-05-12T15:14:42.878Z,7.27
2018-05-12T15:17:12.088Z,6.33
2018-05-12T15:19:41.318Z,7.13
2018-05-12T15:22:10.555Z,6.60
2018-05-12T15:24:40.575Z,5.83
2018-05-12T15:27:10.623Z,6.57
2018-05-12T15:29:40.024Z,6.80
2018-05-12T15:32:09.246Z,5.70
2018-05-12T15:34:38.445Z,6.27
2018-05-12T15:37:07.717Z,6.57
2018-05-12T15:39:36.923Z,5.70
2018-05-12T15:42:06.127Z,5.93
2018-05-12T15:44:35.441Z,6.10
2018-05-12T15:47:04.638Z,6.43
2018-05-12T15:49:33.882Z,6.00
2018-05-12T15:52:03.162Z,6.57
2018-05-12T15:54:33.166Z,6.00
2018-05-12T15:57:02.489Z,5.80
2018-05-12T15:59:31.733Z,8.43
2018-05-12T16:02:00.947Z,6.27
2018-05-12T16:04:30.166Z,6.07
2018-05-12T16:07:00.208Z,5.83
2018-05-12T16:09:30.394Z,6.07
2018-05-12T16:11:59.665Z,5.70
2018-05-12T16:14:28.964Z,6.43
2018-05-12T16:16:58.192Z,8.60
2018-05-12T16:19:27.398Z,9.83
2018-05-12T16:21:57.408Z,5.90
2018-05-12T16:24:26.632Z,7.30
2018-05-12T16:26:56.645Z,5.90
2018-05-12T16:29:26.070Z,6.20
2018-05-12T16:31:55.302Z,5.90
2018-05-12T16:34:24.528Z,5.80
2018-05-12T16:36:53.878Z,6.03
2018-05-12T16:39:23.092Z,6.03
2018-05-12T16:41:52.286Z,5.70
2018-05-12T16:44:21.580Z,6.30
2018-05-12T16:46:50.807Z,6.33
2018-05-12T16:49:20.029Z,5.97
2018-05-12T16:51:49.359Z,5.80
2018-05-12T16:54:19.322Z,6.57
2018-05-12T16:56:48.534Z,7.40
2018-05-12T16:59:18.616Z,6.40
2018-05-12T17:01:47.877Z,5.97
2018-05-12T17:04:17.129Z,6.67
2018-05-12T17:06:46.404Z,7.30
2018-05-12T17:09:15.754Z,6.50
2018-05-12T17:11:45.785Z,6.23
2018-05-12T17:14:15.015Z,6.77
2018-05-12T17:16:44.287Z,10.20
2018-05-12T17:19:14.447Z,11.53
2018-05-12T17:21:43.654Z,14.30
2018-05-12T17:24:12.973Z,13.37
2018-05-12T17:26:42.183Z,11.80
2018-05-12T17:29:12.241Z,9.30
2018-05-12T17:31:41.457Z,8.60
2018-05-12T17:34:10.754Z,7.97
2018-05-12T17:36:39.916Z,7.10
2018-05-12T17:39:09.157Z,6.60
2018-05-12T17:41:38.387Z,10.50
2018-05-12T17:44:08.489Z,10.10
2018-05-12T17:46:37.833Z,6.70
2018-05-12T17:49:07.094Z,7.90
2018-05-12T17:51:36.985Z,8.70
2018-05-12T17:54:06.298Z,12.50
2018-05-12T17:56:36.058Z,9.97
2018-05-12T17:59:05.363Z,8.23
2018-05-12T18:01:34.588Z,7.47
2018-05-12T18:04:03.874Z,7.93
2018-05-12T18:06:33.107Z,8.70
2018-05-12T18:09:02.341Z,9.80
2018-05-12T18:11:31.609Z,10.53
2018-05-12T18:14:00.854Z,11.37
2018-05-12T18:16:30.115Z,9.37
2018-05-12T18:19:00.133Z,7.80
2018-05-12T18:21:30.126Z,7.53
2018-05-12T18:23:59.336Z,7.27
2018-05-12T18:26:28.562Z,8.63
2018-05-12T18:28:57.812Z,7.50
2018-05-12T18:31:27.063Z,8.57
2018-05-12T18:33:56.291Z,9.20
2018-05-12T18:36:25.684Z,8.60
2018-05-12T18:38:54.890Z,8.00
2018-05-12T18:41:24.113Z,7.43
2018-05-12T18:43:53.305Z,10.07
2018-05-12T18:46:22.574Z,12.33
2018-05-12T18:48:51.865Z,8.30
2018-05-12T18:51:21.815Z,8.47
2018-05-12T18:53:51.053Z,8.20
2018-05-12T18:56:22.037Z,7.80
2018-05-12T18:58:51.259Z,8.33
2018-05-12T19:01:20.525Z,8.20
2018-05-12T19:03:49.769Z,7.50
2018-05-12T19:06:18.991Z,7.77
2018-05-12T19:08:49.961Z,9.07
2018-05-12T19:11:19.163Z,9.57
2018-05-12T19:13:48.395Z,8.53
2018-05-12T19:16:18.409Z,8.67
2018-05-12T19:18:47.678Z,8.87
2018-05-12T19:21:16.938Z,8.17
2018-05-12T19:23:46.186Z,8.67
2018-05-12T19:26:15.453Z,8.00
2018-05-12T19:28:44.752Z,9.80
2018-05-12T19:31:14.149Z,9.80
2018-05-12T19:33:43.418Z,8.80
2018-05-12T19:36:13.402Z,8.93
2018-05-12T19:38:42.630Z,10.40
2018-05-12T19:41:11.832Z,10.07
2018-05-12T19:43:41.161Z,8.80
2018-05-12T19:46:10.329Z,9.50
2018-05-12T19:48:40.335Z,8.60
2018-05-12T19:51:10.400Z,9.67
2018-05-12T19:53:39.612Z,8.43
2018-05-12T19:56:09.858Z,8.13
2018-05-12T19:58:39.125Z,8.30
2018-05-12T20:01:08.391Z,8.20
2018-05-12T20:03:37.616Z,9.20
2018-05-12T20:06:06.850Z,9.57
2018-05-12T20:08:36.133Z,10.07
2018-05-12T20:11:06.130Z,8.47
2018-05-12T20:13:35.361Z,9.53
2018-05-12T20:16:04.655Z,8.70
2018-05-12T20:18:33.818Z,9.03
2018-05-12T20:21:03.027Z,8.53
2018-05-12T20:23:32.267Z,8.40
2018-05-12T20:26:01.511Z,8.40
2018-05-12T20:28:30.807Z,9.03
2018-05-12T20:31:00.032Z,8.70
2018-05-12T20:33:29.253Z,8.33
2018-05-12T20:35:58.496Z,9.40
2018-05-12T20:38:27.746Z,8.53
2018-05-12T20:40:56.986Z,8.80
2018-05-12T20:43:26.199Z,8.30
2018-05-12T20:45:55.443Z,7.90
2018-05-12T20:48:25.511Z,7.00
2018-05-12T20:50:54.737Z,7.70
2018-05-12T20:53:23.988Z,7.73
2018-05-12T20:55:53.957Z,8.07
2018-05-12T20:58:23.175Z,8.10
2018-05-12T21:00:52.410Z,7.87
2018-05-12T21:03:21.646Z,8.13
2018-05-12T21:05:50.905Z,8.03
2018-05-12T21:08:20.326Z,8.53
2018-05-12T21:10:49.563Z,9.20
2018-05-12T21:13:18.776Z,8.33
2018-05-12T21:15:48.777Z,9.87
2018-05-12T21:18:17.995Z,8.40
2018-05-12T21:20:47.221Z,9.40
2018-05-12T21:23:16.455Z,8.40
2018-05-12T21:25:45.791Z,8.80
2018-05-12T21:28:14.995Z,9.40
2018-05-12T21:30:44.235Z,9.73
2018-05-12T21:33:13.483Z,10.87
2018-05-12T21:35:43.491Z,10.10
2018-05-12T21:38:12.704Z,9.60
2018-05-12T21:40:41.966Z,9.47
2018-05-12T21:43:11.165Z,9.57
2018-05-12T21:45:40.387Z,9.20
2018-05-12T21:48:09.610Z,8.33
2018-05-12T21:50:39.598Z,10.03
2018-05-12T21:53:08.830Z,9.23
2018-05-12T21:55:38.077Z,8.93
2018-05-12T21:58:07.294Z,8.70
2018-05-12T22:00:37.288Z,9.33
2018-05-12T22:03:06.520Z,8.73
2018-05-12T22:05:36.510Z,7.37
2018-05-12T22:08:05.734Z,8.67
2018-05-12T22:10:34.945Z,9.30
2018-05-12T22:13:04.172Z,8.30
2018-05-12T22:15:33.417Z,8.77
2018-05-12T22:18:03.397Z,9.10
2018-05-12T22:20:32.626Z,8.30
2018-05-12T22:23:02.678Z,9.40
2018-05-12T22:25:32.619Z,10.17
2018-05-12T22:28:01.953Z,9.80
2018-05-12T22:30:31.184Z,10.97
2018-05-12T22:33:00.409Z,11.03
2018-05-12T22:35:29.618Z,12.33
2018-05-12T22:37:58.890Z,11.10
2018-05-12T22:40:34.989Z,11.70
2018-05-12T22:43:04.239Z,12.10
2018-05-12T22:45:33.494Z,11.73
2018-05-12T22:48:02.740Z,11.30
2018-05-12T22:50:32.002Z,11.90
2018-05-12T22:53:02.011Z,11.93
2018-05-12T22:55:32.081Z,11.67
2018-05-12T22:58:01.322Z,12.53
2018-05-12T23:00:32.275Z,12.30
2018-05-12T23:03:01.504Z,13.07
2018-05-12T23:05:30.762Z,12.40
2018-05-12T23:08:01.166Z,11.80
2018-05-12T23:10:31.396Z,12.40
2018-05-12T23:13:00.622Z,11.53
2018-05-12T23:15:30.624Z,12.90
2018-05-12T23:17:59.883Z,12.20
2018-05-12T23:20:29.122Z,13.37
2018-05-12T23:22:58.413Z,12.20
2018-05-12T23:25:27.629Z,12.07
2018-05-12T23:27:57.650Z,13.30
2018-05-12T23:30:27.695Z,13.43
2018-05-12T23:32:56.951Z,11.43
2018-05-12T23:35:26.219Z,12.17
2018-05-12T23:37:55.481Z,11.87
2018-05-12T23:40:24.801Z,13.10
2018-05-12T23:42:54.025Z,11.30
2018-05-12T23:45:23.297Z,11.17
2018-05-12T23:47:52.545Z,12.67
2018-05-12T23:50:22.698Z,11.90
2018-05-12T23:52:51.919Z,13.13
2018-05-12T23:55:22.072Z,11.80
2018-05-12T23:57:51.285Z,13.00
